Larissa — C4TK2 — position and weather

sailwx.info

Track history (hours):
 
Tides and Currents Weather Stations Pressure Air Temp Water Temp Dewpoint Dewpoint Depression Visibility Wind Speed Wind Dir Waves Ship Positions

Larissa

Last reported at 2018-Aug-17 01:52 UTC. Time now 2018-Aug-17 11:41 UTC.
Position N 39°54' W 009°36'.

Length 136 m; draft 7.2 m.

Type: Ship (hazmat cat A). MMSI: 212641000.

Date/timePositionNaut miles runAvg speedWind from/ knotsBaromVisibWave heightAir tempDewpointWater temp
2018-Aug-17 01:52N 39°54' W 009°36'915.3
2018-Aug-17 01:17N 39°45' W 009°39'615.4
2018-Aug-17 00:56N 39°40' W 009°40'715.7
2018-Aug-17 00:30N 39°33' W 009°42'815.7
2018-Aug-17 00:00N 39°25' W 009°44'815.3
2018-Aug-16 23:30N 39°18' W 009°45'815.5
2018-Aug-16 23:01N 39°10' W 009°47'815.6
2018-Aug-16 22:30N 39°02' W 009°49'815.4
2018-Aug-16 22:00N 38°55' W 009°50'815.8
2018-Aug-16 21:30N 38°47' W 009°51'815.7
2018-Aug-16 21:00N 38°39' W 009°49'815.7
2018-Aug-16 20:30N 38°33' W 009°43'816.4
2018-Aug-16 20:00N 38°27' W 009°36'816.3
2018-Aug-16 19:31N 38°21' W 009°28'815.6
2018-Aug-16 19:00N 38°16' W 009°21'815.5
2018-Aug-16 18:31N 38°10' W 009°14'816.1
2018-Aug-16 18:00N 38°05' W 009°07'816.3
2018-Aug-16 17:31N 37°59' W 008°59'815.6
2018-Aug-16 17:00N 37°54' W 008°52'2 3.0
2018-Aug-16 16:20N 37°56' W 008°51'0 0.0
2018-Aug-16 15:41N 37°56' W 008°51'0 0.0
2018-Aug-16 15:29N 37°56' W 008°51'0 0.0
2018-Aug-16 14:59N 37°56' W 008°51'0 0.0
2018-Aug-16 14:26N 37°56' W 008°51'0 0.0
2018-Aug-16 13:50N 37°56' W 008°51'0 0.0
2018-Aug-16 13:29N 37°56' W 008°51'0 0.0
2018-Aug-16 12:56N 37°56' W 008°51'0 0.0
2018-Aug-16 12:29N 37°56' W 008°51'0 0.0
2018-Aug-16 11:59N 37°56' W 008°51'0 0.0
2018-Aug-16 11:29N 37°56' W 008°51'0 0.0
2018-Aug-16 10:56N 37°56' W 008°51'0 0.0
2018-Aug-16 10:29N 37°56' W 008°51'0 0.0
2018-Aug-16 09:59N 37°56' W 008°51'0 0.0
2018-Aug-16 09:29N 37°56' W 008°51'0 0.0
2018-Aug-16 08:59N 37°56' W 008°51'0 0.0
2018-Aug-16 08:29N 37°56' W 008°51'0 0.0
2018-Aug-16 07:56N 37°56' W 008°51'0 0.0
2018-Aug-16 07:29N 37°56' W 008°51'0 0.0
2018-Aug-16 06:59N 37°56' W 008°51'0 0.0
2018-Aug-16 06:26N 37°56' W 008°51'0 0.0
2018-Aug-16 05:44N 37°56' W 008°51'0 0.0
2018-Aug-16 05:30N 37°56' W 008°51'1 1.3
2018-Aug-16 05:00N 37°55' W 008°51'3 5.3
2018-Aug-16 04:30N 37°53' W 008°52'2 3.8
2018-Aug-16 04:00N 37°51' W 008°53'4 7.7
2018-Aug-16 03:30N 37°48' W 008°56'611.9
2018-Aug-16 03:00N 37°43' W 009°00'713.0
2018-Aug-16 02:30N 37°38' W 009°05'713.5
2018-Aug-16 02:00N 37°33' W 009°10'713.6
2018-Aug-16 01:29N 37°27' W 009°16'713.1
2018-Aug-16 00:58N 37°22' W 009°21'613.1
2018-Aug-16 00:30N 37°17' W 009°26'713.2
2018-Aug-16 00:00N 37°12' W 009°30'612.9
2018-Aug-15 23:30N 37°07' W 009°35'612.6
2018-Aug-15 23:00N 37°02' W 009°40'612.7
2018-Aug-15 22:30N 36°56' W 009°45'712.9
2018-Aug-15 21:56N 36°50' W 009°49'612.9
2018-Aug-15 21:29N 36°45' W 009°53'12512.9
2018-Aug-15 11:51N 34°55' W 011°06'3313.8
2018-Aug-15 09:29N 34°27' W 011°25'916.0
2018-Aug-15 08:57N 34°19' W 011°29'816.0
2018-Aug-15 08:25N 34°11' W 011°34'915.8
2018-Aug-15 07:53N 34°04' W 011°39'3316.0
2018-Aug-15 05:50N 33°35' W 011°58'516.0
2018-Aug-15 05:30N 33°31' W 012°01'915.8
2018-Aug-15 04:57N 33°23' W 012°07'715.7
2018-Aug-15 04:28N 33°16' W 012°11'915.9
2018-Aug-15 03:54N 33°08' W 012°16'1515.6
2018-Aug-15 02:58N 32°55' W 012°24'4515.4
2018-Aug-15 00:02N 32°15' W 012°49'115.1
2018-Aug-15 00:00N 32°15' W 012°49'715.0
2018-Aug-14 23:30N 32°08' W 012°53'714.8
2018-Aug-14 23:00N 32°02' W 012°57'915.4
2018-Aug-14 22:24N 31°54' W 013°02'615.2
2018-Aug-14 21:59N 31°48' W 013°06'715.0
2018-Aug-14 21:30N 31°42' W 013°10'815.1
2018-Aug-14 21:00N 31°35' W 013°14'714.9
2018-Aug-14 20:31N 31°29' W 013°18'815.1
2018-Aug-14 20:01N 31°22' W 013°22'1115.2
2018-Aug-14 19:18N 31°13' W 013°29'515.0
2018-Aug-14 19:00N 31°09' W 013°32'815.2
2018-Aug-14 18:29N 31°02' W 013°36'815.5
2018-Aug-14 17:59N 30°55' W 013°41'915.6
2018-Aug-14 17:26N 30°48' W 013°46'715.7
2018-Aug-14 17:00N 30°42' W 013°50'815.7
2018-Aug-14 16:29N 30°35' W 013°54'815.8
2018-Aug-14 16:00N 30°28' W 013°58'815.9
2018-Aug-14 15:29N 30°21' W 014°03'815.9
2018-Aug-14 15:00N 30°14' W 014°07'815.2
2018-Aug-14 14:30N 30°07' W 014°10'815.5
2018-Aug-14 14:00N 29°60' W 014°14'815.7
2018-Aug-14 13:30N 29°53' W 014°18'815.8
2018-Aug-14 13:00N 29°46' W 014°22'815.6
2018-Aug-14 12:30N 29°39' W 014°27'815.5
2018-Aug-14 12:00N 29°32' W 014°31'815.1
2018-Aug-14 11:31N 29°26' W 014°35'714.8
2018-Aug-14 11:01N 29°19' W 014°39'815.0
2018-Aug-14 10:31N 29°13' W 014°43'815.2
2018-Aug-14 10:00N 29°06' W 014°47'815.3
2018-Aug-14 09:30N 28°59' W 014°52'815.6
2018-Aug-14 09:01N 28°52' W 014°56'815.7
2018-Aug-14 08:31N 28°46' W 014°60'815.6
2018-Aug-14 08:01N 28°39' W 015°04'815.8
2018-Aug-14 07:30N 28°32' W 015°08'815.7
2018-Aug-14 07:01N 28°25' W 015°12'815.3
2018-Aug-14 06:31N 28°18' W 015°17'815.8
2018-Aug-14 06:01N 28°11' W 015°21'510.1
2018-Aug-14 05:30N 28°08' W 015°25'0 0.3
2018-Aug-14 04:58N 28°08' W 015°25'0 0.0
2018-Aug-14 04:25N 28°08' W 015°25'0 0.0
2018-Aug-14 03:55N 28°08' W 015°25'0 0.0
2018-Aug-14 03:25N 28°08' W 015°25'0 0.0
2018-Aug-14 02:54N 28°08' W 015°25'0 0.0
2018-Aug-14 02:24N 28°08' W 015°25'0 0.0
2018-Aug-14 01:54N 28°08' W 015°25'0 0.0
2018-Aug-14 01:24N 28°08' W 015°25'0 0.0
2018-Aug-14 00:54N 28°08' W 015°25'0 0.0
2018-Aug-14 00:24N 28°08' W 015°25'0 0.0
2018-Aug-13 23:57N 28°08' W 015°25'0 0.0
2018-Aug-13 23:27N 28°08' W 015°25'0 0.0
2018-Aug-13 22:57N 28°08' W 015°25'0 0.0
2018-Aug-13 22:27N 28°08' W 015°25'0 0.0
2018-Aug-13 21:57N 28°08' W 015°25'0 0.0
2018-Aug-13 21:27N 28°08' W 015°25'0 0.0
2018-Aug-13 20:57N 28°08' W 015°25'0 0.0
2018-Aug-13 20:27N 28°08' W 015°25'0 0.0
2018-Aug-13 19:57N 28°08' W 015°25'0 0.0
2018-Aug-13 19:27N 28°08' W 015°25'0 0.0
2018-Aug-13 19:00N 28°08' W 015°25'0 0.0
2018-Aug-13 18:30N 28°08' W 015°25'0 0.0
2018-Aug-13 18:00N 28°08' W 015°25'0 0.0
2018-Aug-13 17:30N 28°08' W 015°25'0 0.0
2018-Aug-13 17:00N 28°08' W 015°25'0 0.0
2018-Aug-13 16:30N 28°08' W 015°25'0 0.0
2018-Aug-13 16:00N 28°08' W 015°25'0 0.0
2018-Aug-13 15:30N 28°08' W 015°25'0 0.0
2018-Aug-13 15:00N 28°08' W 015°25'0 0.0
2018-Aug-13 14:30N 28°08' W 015°25'0 0.0
2018-Aug-13 14:00N 28°08' W 015°25'0 0.0
2018-Aug-13 13:30N 28°08' W 015°25'0 0.0
2018-Aug-13 13:00N 28°08' W 015°25'0 0.0
2018-Aug-13 12:30N 28°08' W 015°25'0 0.0
2018-Aug-13 12:00N 28°08' W 015°25'0 0.0
2018-Aug-13 11:30N 28°08' W 015°25'0 0.0
2018-Aug-13 11:00N 28°08' W 015°25'0 0.0
2018-Aug-13 10:30N 28°08' W 015°25'0 0.0
2018-Aug-13 10:00N 28°08' W 015°25'0 0.0
2018-Aug-13 09:30N 28°08' W 015°25'0 0.0
2018-Aug-13 08:51N 28°08' W 015°25'0 0.0
2018-Aug-13 08:30N 28°08' W 015°25'0 0.0
2018-Aug-13 08:00N 28°08' W 015°25'0 0.0
2018-Aug-13 07:30N 28°08' W 015°25'0 0.0
2018-Aug-13 07:00N 28°08' W 015°25'0 0.0
2018-Aug-13 06:30N 28°08' W 015°25'0 0.0
2018-Aug-13 05:51N 28°08' W 015°25'0 0.0
2018-Aug-13 05:21N 28°08' W 015°25'0 0.0
2018-Aug-13 04:51N 28°08' W 015°25'0 0.0
2018-Aug-13 04:21N 28°08' W 015°25'0 0.0
2018-Aug-13 03:51N 28°08' W 015°25'0 0.0
2018-Aug-13 03:21N 28°08' W 015°25'0 0.0
2018-Aug-13 02:54N 28°08' W 015°25'0 0.0
2018-Aug-13 02:24N 28°08' W 015°25'0 0.0
2018-Aug-13 01:54N 28°08' W 015°25'0 0.0
2018-Aug-13 01:24N 28°08' W 015°25'0 0.0
2018-Aug-13 00:54N 28°08' W 015°25'0 0.0
2018-Aug-13 00:24N 28°08' W 015°25'0 0.0
2018-Aug-12 23:54N 28°08' W 015°25'0 0.0
2018-Aug-12 23:24N 28°08' W 015°25'0 0.0
2018-Aug-12 22:57N 28°08' W 015°25'0 0.0
2018-Aug-12 22:27N 28°08' W 015°25'0 0.0
2018-Aug-12 21:57N 28°08' W 015°25'0 0.0
2018-Aug-12 21:27N 28°08' W 015°25'0 0.0
2018-Aug-12 20:57N 28°08' W 015°25'0 0.0
2018-Aug-12 20:27N 28°08' W 015°25'0 0.0
2018-Aug-12 19:57N 28°08' W 015°25'0 0.0
2018-Aug-12 19:27N 28°08' W 015°25'0 0.0
2018-Aug-12 18:57N 28°08' W 015°25'0 0.0
2018-Aug-12 18:27N 28°08' W 015°25'0 0.0
2018-Aug-12 17:57N 28°08' W 015°25'0 0.0
2018-Aug-12 17:30N 28°08' W 015°25'0 0.0
2018-Aug-12 17:00N 28°08' W 015°25'0 0.0
2018-Aug-12 16:30N 28°08' W 015°25'0 0.0
2018-Aug-12 15:59N 28°08' W 015°25'0 0.0
2018-Aug-12 15:29N 28°08' W 015°25'0 0.0
2018-Aug-12 14:59N 28°08' W 015°25'0 0.0
2018-Aug-12 14:29N 28°08' W 015°25'0 0.0
2018-Aug-12 13:59N 28°08' W 015°25'0 0.0
2018-Aug-12 13:29N 28°08' W 015°25'0 0.0
2018-Aug-12 12:59N 28°08' W 015°25'0 0.0
2018-Aug-12 12:29N 28°08' W 015°25'0 0.0
2018-Aug-12 11:59N 28°08' W 015°25'0 0.0
2018-Aug-12 11:29N 28°08' W 015°25'0 0.0
2018-Aug-12 10:59N 28°08' W 015°25'0 0.0
2018-Aug-12 10:29N 28°08' W 015°25'0 0.0
2018-Aug-12 09:59N 28°08' W 015°25'0 0.0
2018-Aug-12 09:29N 28°08' W 015°25'0 0.0
2018-Aug-12 08:59N 28°08' W 015°25'0 0.0
2018-Aug-12 08:29N 28°08' W 015°25'0 0.0
2018-Aug-12 07:59N 28°08' W 015°25'0 0.0
2018-Aug-12 07:29N 28°08' W 015°25'0 0.0
2018-Aug-12 06:59N 28°08' W 015°25'0 0.0
2018-Aug-12 06:29N 28°08' W 015°25'0 0.0
2018-Aug-12 05:59N 28°08' W 015°25'0 0.0
2018-Aug-12 05:29N 28°08' W 015°25'0 0.0
2018-Aug-12 04:50N 28°08' W 015°25'0 0.0
2018-Aug-12 04:30N 28°08' W 015°25'2 3.1
2018-Aug-12 04:00N 28°07' W 015°24'3 5.1
2018-Aug-12 03:30N 28°08' W 015°21'4 7.9
2018-Aug-12 03:00N 28°09' W 015°17'2 3.1
2018-Aug-12 02:30N 28°11' W 015°17'1 1.7
2018-Aug-12 02:00N 28°12' W 015°17'1 1.6
2018-Aug-12 01:30N 28°13' W 015°17'5 9.2
2018-Aug-12 01:00N 28°13' W 015°22'510.7
2018-Aug-12 00:30N 28°13' W 015°28'510.7
2018-Aug-12 00:00N 28°13' W 015°34'510.2
2018-Aug-11 23:30N 28°14' W 015°40'5 9.7
2018-Aug-11 22:59N 28°14' W 015°46'4 7.4
2018-Aug-11 22:30N 28°14' W 015°50'4 7.1
2018-Aug-11 22:00N 28°14' W 015°54'4 7.5
2018-Aug-11 21:30N 28°15' W 015°58'4 8.1
2018-Aug-11 21:00N 28°17' W 016°02'4 8.8
2018-Aug-11 20:30N 28°20' W 016°05'4 8.4
2018-Aug-11 20:00N 28°23' W 016°08'4 8.3
2018-Aug-11 19:30N 28°26' W 016°12'4 6.9
2018-Aug-11 19:00N 28°29' W 016°14'0 0.0
2018-Aug-11 18:30N 28°29' W 016°14'0 0.0
2018-Aug-11 18:00N 28°29' W 016°14'0 0.0
2018-Aug-11 17:30N 28°29' W 016°14'0 0.0
2018-Aug-11 17:00N 28°29' W 016°14'0 0.0
2018-Aug-11 16:30N 28°29' W 016°14'0 0.0
2018-Aug-11 16:00N 28°29' W 016°14'0 0.0
2018-Aug-11 15:30N 28°29' W 016°14'0 0.0
2018-Aug-11 15:00N 28°29' W 016°14'0 0.0
2018-Aug-11 14:30N 28°29' W 016°14'0 0.0
2018-Aug-11 14:00N 28°29' W 016°14'0 0.0
2018-Aug-11 13:30N 28°29' W 016°14'0 0.0
2018-Aug-11 13:00N 28°29' W 016°14'0 0.0
2018-Aug-11 12:30N 28°29' W 016°14'0 0.7
2018-Aug-11 12:00N 28°29' W 016°14'510.2
2018-Aug-11 11:31N 28°30' W 016°08'611.6
2018-Aug-11 11:00N 28°33' W 016°02'611.5
2018-Aug-11 10:30N 28°36' W 015°57'611.8
2018-Aug-11 10:00N 28°39' W 015°51'1012.1
2018-Aug-11 09:12N 28°44' W 015°41'313.1
2018-Aug-11 09:00N 28°46' W 015°39'713.6
2018-Aug-11 08:30N 28°49' W 015°33'713.6
2018-Aug-11 08:00N 28°53' W 015°26'713.2
2018-Aug-11 07:29N 28°57' W 015°19'613.3
2018-Aug-11 07:00N 29°00' W 015°13'713.5
2018-Aug-11 06:29N 29°04' W 015°06'814.1
2018-Aug-11 05:55N 29°08' W 014°59'714.9
2018-Aug-11 05:28N 29°13' W 014°53'714.6
2018-Aug-11 04:59N 29°17' W 014°47'714.5
2018-Aug-11 04:30N 29°21' W 014°41'714.3
2018-Aug-11 04:00N 29°26' W 014°34'714.4
2018-Aug-11 03:30N 29°30' W 014°28'814.5
2018-Aug-11 02:59N 29°35' W 014°21'714.6
2018-Aug-11 02:29N 29°39' W 014°14'714.6
2018-Aug-11 02:00N 29°43' W 014°07'714.3
2018-Aug-11 01:30N 29°48' W 014°01'814.1
2018-Aug-11 00:56N 29°53' W 013°54'614.0
2018-Aug-11 00:29N 29°57' W 013°48'713.9
2018-Aug-10 23:56N 30°02' W 013°41'713.8
2018-Aug-10 23:28N 30°05' W 013°35'914.1
2018-Aug-10 22:49N 30°11' W 013°27'1514.2
2018-Aug-10 21:46N 30°20' W 013°13'1614.5
2018-Aug-10 20:40N 30°30' W 012°59'314.6
2018-Aug-10 20:26N 30°32' W 012°56'814.5
2018-Aug-10 19:51N 30°38' W 012°48'714.4
2018-Aug-10 19:23N 30°42' W 012°42'2314.4
2018-Aug-10 17:48N 30°51' W 012°18'296 6.2
2018-Aug-08 18:17N 33°48' W 007°37'517.6
2018-Aug-08 18:00N 33°53' W 007°40'1017.9
2018-Aug-08 17:27N 34°01' W 007°45'817.7
2018-Aug-08 17:00N 34°09' W 007°48'917.7
2018-Aug-08 16:30N 34°17' W 007°52'917.6
2018-Aug-08 16:00N 34°25' W 007°57'917.7
2018-Aug-08 15:30N 34°33' W 008°01'4617.5
2018-Aug-08 12:53N 35°15' W 008°22'717.3
2018-Aug-08 12:29N 35°22' W 008°26'2717.8
2018-Aug-08 10:57N 35°47' W 008°39'918.0
2018-Aug-08 10:26N 35°55' W 008°44'817.8
2018-Aug-08 09:59N 36°03' W 008°48'917.8
2018-Aug-08 09:29N 36°10' W 008°53'817.4
2018-Aug-08 09:00N 36°18' W 008°58'917.5
2018-Aug-08 08:30N 36°26' W 009°02'2016.7
2018-Aug-08 07:20N 36°37' W 009°22'1017.2
2018-Aug-08 06:43N 36°45' W 009°31'416.9
2018-Aug-08 06:30N 36°47' W 009°34'917.1
2018-Aug-08 06:00N 36°56' W 009°36'1017.0
2018-Aug-08 05:26N 37°05' W 009°31'817.5
2018-Aug-08 04:57N 37°12' W 009°26'817.6
2018-Aug-08 04:30N 37°19' W 009°21'917.4
2018-Aug-08 04:00N 37°26' W 009°15'917.4
2018-Aug-08 03:30N 37°33' W 009°09'917.4
2018-Aug-08 03:00N 37°41' W 009°03'917.3
2018-Aug-08 02:30N 37°48' W 008°57'815.8
2018-Aug-08 02:00N 37°54' W 008°50'2 4.2
2018-Aug-08 01:30N 37°56' W 008°51'0 0.0
2018-Aug-08 00:50N 37°56' W 008°51'0 0.0
2018-Aug-08 00:29N 37°56' W 008°51'0 0.0
2018-Aug-07 23:59N 37°56' W 008°51'0 0.0
2018-Aug-07 23:29N 37°56' W 008°51'0 0.0
2018-Aug-07 22:56N 37°56' W 008°51'0 0.0
2018-Aug-07 22:29N 37°56' W 008°51'0 0.0
2018-Aug-07 21:56N 37°56' W 008°51'0 0.0
2018-Aug-07 21:29N 37°56' W 008°51'0 0.0
2018-Aug-07 20:59N 37°56' W 008°51'0 0.0
2018-Aug-07 20:26N 37°56' W 008°51'0 0.0
2018-Aug-07 19:59N 37°56' W 008°51'0 0.0
2018-Aug-07 19:26N 37°56' W 008°51'0 0.0
2018-Aug-07 18:50N 37°56' W 008°51'0 0.0
2018-Aug-07 18:23N 37°56' W 008°51'0 0.0
2018-Aug-07 17:58N 37°56' W 008°51'0 0.0
2018-Aug-07 17:28N 37°56' W 008°51'0 0.0
2018-Aug-07 16:58N 37°56' W 008°51'0 0.1
2018-Aug-07 16:30N 37°56' W 008°51'1 2.6
2018-Aug-07 16:00N 37°55' W 008°51'510.0
2018-Aug-07 15:31N 37°57' W 008°57'816.6
2018-Aug-07 15:01N 38°01' W 009°06'917.2
2018-Aug-07 14:30N 38°06' W 009°14'816.9
2018-Aug-07 14:00N 38°12' W 009°23'714.5
2018-Aug-07 13:30N 38°16' W 009°30'612.2
2018-Aug-07 13:00N 38°20' W 009°36'612.3
2018-Aug-07 12:30N 38°23' W 009°43'612.3
2018-Aug-07 12:00N 38°27' W 009°49'611.6
2018-Aug-07 11:30N 38°31' W 009°55'611.7
2018-Aug-07 11:00N 38°34' W 010°01'611.3
2018-Aug-07 10:30N 38°39' W 010°04'611.7
2018-Aug-07 10:00N 38°45' W 010°05'611.3
2018-Aug-07 09:30N 38°51' W 010°05'611.4
2018-Aug-07 09:00N 38°56' W 010°04'511.0
2018-Aug-07 08:30N 39°02' W 010°03'611.2
2018-Aug-07 07:58N 39°08' W 010°01'511.4
2018-Aug-07 07:30N 39°13' W 009°59'611.5
2018-Aug-07 07:00N 39°18' W 009°58'611.4
2018-Aug-07 06:29N 39°24' W 009°56'611.6
2018-Aug-07 05:59N 39°30' W 009°54'711.4
2018-Aug-07 05:21N 39°37' W 009°51'511.3
2018-Aug-07 04:56N 39°41' W 009°49'611.6
2018-Aug-07 04:28N 39°46' W 009°47'  
Track history (hours):
 
Tides and Currents Weather Stations Pressure Air Temp Water Temp Dewpoint Dewpoint Depression Visibility Wind Speed Wind Dir Waves Ship Positions

Larissa

Last reported at 2018-Aug-17 01:52 UTC. Time now 2018-Aug-17 11:41 UTC.
Position N 39°54' W 009°36'.

Length 136 m; draft 7.2 m.

Type: Ship (hazmat cat A). MMSI: 212641000.

Date/timePositionNaut miles runAvg speedWind from/ knotsBaromVisibWave heightAir tempDewpointWater temp
2018-Aug-17 01:52N 39°54' W 009°36'915.3
2018-Aug-17 01:17N 39°45' W 009°39'615.4
2018-Aug-17 00:56N 39°40' W 009°40'715.7
2018-Aug-17 00:30N 39°33' W 009°42'815.7
2018-Aug-17 00:00N 39°25' W 009°44'815.3
2018-Aug-16 23:30N 39°18' W 009°45'815.5
2018-Aug-16 23:01N 39°10' W 009°47'815.6
2018-Aug-16 22:30N 39°02' W 009°49'815.4
2018-Aug-16 22:00N 38°55' W 009°50'815.8
2018-Aug-16 21:30N 38°47' W 009°51'815.7
2018-Aug-16 21:00N 38°39' W 009°49'815.7
2018-Aug-16 20:30N 38°33' W 009°43'816.4
2018-Aug-16 20:00N 38°27' W 009°36'816.3
2018-Aug-16 19:31N 38°21' W 009°28'815.6
2018-Aug-16 19:00N 38°16' W 009°21'815.5
2018-Aug-16 18:31N 38°10' W 009°14'816.1
2018-Aug-16 18:00N 38°05' W 009°07'816.3
2018-Aug-16 17:31N 37°59' W 008°59'815.6
2018-Aug-16 17:00N 37°54' W 008°52'2 3.0
2018-Aug-16 16:20N 37°56' W 008°51'0 0.0
2018-Aug-16 15:41N 37°56' W 008°51'0 0.0
2018-Aug-16 15:29N 37°56' W 008°51'0 0.0
2018-Aug-16 14:59N 37°56' W 008°51'0 0.0
2018-Aug-16 14:26N 37°56' W 008°51'0 0.0
2018-Aug-16 13:50N 37°56' W 008°51'0 0.0
2018-Aug-16 13:29N 37°56' W 008°51'0 0.0
2018-Aug-16 12:56N 37°56' W 008°51'0 0.0
2018-Aug-16 12:29N 37°56' W 008°51'0 0.0
2018-Aug-16 11:59N 37°56' W 008°51'0 0.0
2018-Aug-16 11:29N 37°56' W 008°51'0 0.0
2018-Aug-16 10:56N 37°56' W 008°51'0 0.0
2018-Aug-16 10:29N 37°56' W 008°51'0 0.0
2018-Aug-16 09:59N 37°56' W 008°51'0 0.0
2018-Aug-16 09:29N 37°56' W 008°51'0 0.0
2018-Aug-16 08:59N 37°56' W 008°51'0 0.0
2018-Aug-16 08:29N 37°56' W 008°51'0 0.0
2018-Aug-16 07:56N 37°56' W 008°51'0 0.0
2018-Aug-16 07:29N 37°56' W 008°51'0 0.0
2018-Aug-16 06:59N 37°56' W 008°51'0 0.0
2018-Aug-16 06:26N 37°56' W 008°51'0 0.0
2018-Aug-16 05:44N 37°56' W 008°51'0 0.0
2018-Aug-16 05:30N 37°56' W 008°51'1 1.3
2018-Aug-16 05:00N 37°55' W 008°51'3 5.3
2018-Aug-16 04:30N 37°53' W 008°52'2 3.8
2018-Aug-16 04:00N 37°51' W 008°53'4 7.7
2018-Aug-16 03:30N 37°48' W 008°56'611.9
2018-Aug-16 03:00N 37°43' W 009°00'713.0
2018-Aug-16 02:30N 37°38' W 009°05'713.5
2018-Aug-16 02:00N 37°33' W 009°10'713.6
2018-Aug-16 01:29N 37°27' W 009°16'713.1
2018-Aug-16 00:58N 37°22' W 009°21'613.1
2018-Aug-16 00:30N 37°17' W 009°26'713.2
2018-Aug-16 00:00N 37°12' W 009°30'612.9
2018-Aug-15 23:30N 37°07' W 009°35'612.6
2018-Aug-15 23:00N 37°02' W 009°40'612.7
2018-Aug-15 22:30N 36°56' W 009°45'712.9
2018-Aug-15 21:56N 36°50' W 009°49'612.9
2018-Aug-15 21:29N 36°45' W 009°53'12512.9
2018-Aug-15 11:51N 34°55' W 011°06'3313.8
2018-Aug-15 09:29N 34°27' W 011°25'916.0
2018-Aug-15 08:57N 34°19' W 011°29'816.0
2018-Aug-15 08:25N 34°11' W 011°34'915.8
2018-Aug-15 07:53N 34°04' W 011°39'3316.0
2018-Aug-15 05:50N 33°35' W 011°58'516.0
2018-Aug-15 05:30N 33°31' W 012°01'915.8
2018-Aug-15 04:57N 33°23' W 012°07'715.7
2018-Aug-15 04:28N 33°16' W 012°11'915.9
2018-Aug-15 03:54N 33°08' W 012°16'1515.6
2018-Aug-15 02:58N 32°55' W 012°24'4515.4
2018-Aug-15 00:02N 32°15' W 012°49'115.1
2018-Aug-15 00:00N 32°15' W 012°49'715.0
2018-Aug-14 23:30N 32°08' W 012°53'714.8
2018-Aug-14 23:00N 32°02' W 012°57'915.4
2018-Aug-14 22:24N 31°54' W 013°02'615.2
2018-Aug-14 21:59N 31°48' W 013°06'715.0
2018-Aug-14 21:30N 31°42' W 013°10'815.1
2018-Aug-14 21:00N 31°35' W 013°14'714.9
2018-Aug-14 20:31N 31°29' W 013°18'815.1
2018-Aug-14 20:01N 31°22' W 013°22'1115.2
2018-Aug-14 19:18N 31°13' W 013°29'515.0
2018-Aug-14 19:00N 31°09' W 013°32'815.2
2018-Aug-14 18:29N 31°02' W 013°36'815.5
2018-Aug-14 17:59N 30°55' W 013°41'915.6
2018-Aug-14 17:26N 30°48' W 013°46'715.7
2018-Aug-14 17:00N 30°42' W 013°50'815.7
2018-Aug-14 16:29N 30°35' W 013°54'815.8
2018-Aug-14 16:00N 30°28' W 013°58'815.9
2018-Aug-14 15:29N 30°21' W 014°03'815.9
2018-Aug-14 15:00N 30°14' W 014°07'815.2
2018-Aug-14 14:30N 30°07' W 014°10'815.5
2018-Aug-14 14:00N 29°60' W 014°14'815.7
2018-Aug-14 13:30N 29°53' W 014°18'815.8
2018-Aug-14 13:00N 29°46' W 014°22'815.6
2018-Aug-14 12:30N 29°39' W 014°27'815.5
2018-Aug-14 12:00N 29°32' W 014°31'815.1
2018-Aug-14 11:31N 29°26' W 014°35'714.8
2018-Aug-14 11:01N 29°19' W 014°39'815.0
2018-Aug-14 10:31N 29°13' W 014°43'815.2
2018-Aug-14 10:00N 29°06' W 014°47'815.3
2018-Aug-14 09:30N 28°59' W 014°52'815.6
2018-Aug-14 09:01N 28°52' W 014°56'815.7
2018-Aug-14 08:31N 28°46' W 014°60'815.6
2018-Aug-14 08:01N 28°39' W 015°04'815.8
2018-Aug-14 07:30N 28°32' W 015°08'815.7
2018-Aug-14 07:01N 28°25' W 015°12'815.3
2018-Aug-14 06:31N 28°18' W 015°17'815.8
2018-Aug-14 06:01N 28°11' W 015°21'510.1
2018-Aug-14 05:30N 28°08' W 015°25'0 0.3
2018-Aug-14 04:58N 28°08' W 015°25'0 0.0
2018-Aug-14 04:25N 28°08' W 015°25'0 0.0
2018-Aug-14 03:55N 28°08' W 015°25'0 0.0
2018-Aug-14 03:25N 28°08' W 015°25'0 0.0
2018-Aug-14 02:54N 28°08' W 015°25'0 0.0
2018-Aug-14 02:24N 28°08' W 015°25'0 0.0
2018-Aug-14 01:54N 28°08' W 015°25'0 0.0
2018-Aug-14 01:24N 28°08' W 015°25'0 0.0
2018-Aug-14 00:54N 28°08' W 015°25'0 0.0
2018-Aug-14 00:24N 28°08' W 015°25'0 0.0
2018-Aug-13 23:57N 28°08' W 015°25'0 0.0
2018-Aug-13 23:27N 28°08' W 015°25'0 0.0
2018-Aug-13 22:57N 28°08' W 015°25'0 0.0
2018-Aug-13 22:27N 28°08' W 015°25'0 0.0
2018-Aug-13 21:57N 28°08' W 015°25'0 0.0
2018-Aug-13 21:27N 28°08' W 015°25'0 0.0
2018-Aug-13 20:57N 28°08' W 015°25'0 0.0
2018-Aug-13 20:27N 28°08' W 015°25'0 0.0
2018-Aug-13 19:57N 28°08' W 015°25'0 0.0
2018-Aug-13 19:27N 28°08' W 015°25'0 0.0
2018-Aug-13 19:00N 28°08' W 015°25'0 0.0
2018-Aug-13 18:30N 28°08' W 015°25'0 0.0
2018-Aug-13 18:00N 28°08' W 015°25'0 0.0
2018-Aug-13 17:30N 28°08' W 015°25'0 0.0
2018-Aug-13 17:00N 28°08' W 015°25'0 0.0
2018-Aug-13 16:30N 28°08' W 015°25'0 0.0
2018-Aug-13 16:00N 28°08' W 015°25'0 0.0
2018-Aug-13 15:30N 28°08' W 015°25'0 0.0
2018-Aug-13 15:00N 28°08' W 015°25'0 0.0
2018-Aug-13 14:30N 28°08' W 015°25'0 0.0
2018-Aug-13 14:00N 28°08' W 015°25'0 0.0
2018-Aug-13 13:30N 28°08' W 015°25'0 0.0
2018-Aug-13 13:00N 28°08' W 015°25'0 0.0
2018-Aug-13 12:30N 28°08' W 015°25'0 0.0
2018-Aug-13 12:00N 28°08' W 015°25'0 0.0
2018-Aug-13 11:30N 28°08' W 015°25'0 0.0
2018-Aug-13 11:00N 28°08' W 015°25'0 0.0
2018-Aug-13 10:30N 28°08' W 015°25'0 0.0
2018-Aug-13 10:00N 28°08' W 015°25'0 0.0
2018-Aug-13 09:30N 28°08' W 015°25'0 0.0
2018-Aug-13 08:51N 28°08' W 015°25'0 0.0
2018-Aug-13 08:30N 28°08' W 015°25'0 0.0
2018-Aug-13 08:00N 28°08' W 015°25'0 0.0
2018-Aug-13 07:30N 28°08' W 015°25'0 0.0
2018-Aug-13 07:00N 28°08' W 015°25'0 0.0
2018-Aug-13 06:30N 28°08' W 015°25'0 0.0
2018-Aug-13 05:51N 28°08' W 015°25'0 0.0
2018-Aug-13 05:21N 28°08' W 015°25'0 0.0
2018-Aug-13 04:51N 28°08' W 015°25'0 0.0
2018-Aug-13 04:21N 28°08' W 015°25'0 0.0
2018-Aug-13 03:51N 28°08' W 015°25'0 0.0
2018-Aug-13 03:21N 28°08' W 015°25'0 0.0
2018-Aug-13 02:54N 28°08' W 015°25'0 0.0
2018-Aug-13 02:24N 28°08' W 015°25'0 0.0
2018-Aug-13 01:54N 28°08' W 015°25'0 0.0
2018-Aug-13 01:24N 28°08' W 015°25'0 0.0
2018-Aug-13 00:54N 28°08' W 015°25'0 0.0
2018-Aug-13 00:24N 28°08' W 015°25'0 0.0
2018-Aug-12 23:54N 28°08' W 015°25'0 0.0
2018-Aug-12 23:24N 28°08' W 015°25'0 0.0
2018-Aug-12 22:57N 28°08' W 015°25'0 0.0
2018-Aug-12 22:27N 28°08' W 015°25'0 0.0
2018-Aug-12 21:57N 28°08' W 015°25'0 0.0
2018-Aug-12 21:27N 28°08' W 015°25'0 0.0
2018-Aug-12 20:57N 28°08' W 015°25'0 0.0
2018-Aug-12 20:27N 28°08' W 015°25'0 0.0
2018-Aug-12 19:57N 28°08' W 015°25'0 0.0
2018-Aug-12 19:27N 28°08' W 015°25'0 0.0
2018-Aug-12 18:57N 28°08' W 015°25'0 0.0
2018-Aug-12 18:27N 28°08' W 015°25'0 0.0
2018-Aug-12 17:57N 28°08' W 015°25'0 0.0
2018-Aug-12 17:30N 28°08' W 015°25'0 0.0
2018-Aug-12 17:00N 28°08' W 015°25'0 0.0
2018-Aug-12 16:30N 28°08' W 015°25'0 0.0
2018-Aug-12 15:59N 28°08' W 015°25'0 0.0
2018-Aug-12 15:29N 28°08' W 015°25'0 0.0
2018-Aug-12 14:59N 28°08' W 015°25'0 0.0
2018-Aug-12 14:29N 28°08' W 015°25'0 0.0
2018-Aug-12 13:59N 28°08' W 015°25'0 0.0
2018-Aug-12 13:29N 28°08' W 015°25'0 0.0
2018-Aug-12 12:59N 28°08' W 015°25'0 0.0
2018-Aug-12 12:29N 28°08' W 015°25'0 0.0
2018-Aug-12 11:59N 28°08' W 015°25'0 0.0
2018-Aug-12 11:29N 28°08' W 015°25'0 0.0
2018-Aug-12 10:59N 28°08' W 015°25'0 0.0
2018-Aug-12 10:29N 28°08' W 015°25'0 0.0
2018-Aug-12 09:59N 28°08' W 015°25'0 0.0
2018-Aug-12 09:29N 28°08' W 015°25'0 0.0
2018-Aug-12 08:59N 28°08' W 015°25'0 0.0
2018-Aug-12 08:29N 28°08' W 015°25'0 0.0
2018-Aug-12 07:59N 28°08' W 015°25'0 0.0
2018-Aug-12 07:29N 28°08' W 015°25'0 0.0
2018-Aug-12 06:59N 28°08' W 015°25'0 0.0
2018-Aug-12 06:29N 28°08' W 015°25'0 0.0
2018-Aug-12 05:59N 28°08' W 015°25'0 0.0
2018-Aug-12 05:29N 28°08' W 015°25'0 0.0
2018-Aug-12 04:50N 28°08' W 015°25'0 0.0
2018-Aug-12 04:30N 28°08' W 015°25'2 3.1
2018-Aug-12 04:00N 28°07' W 015°24'3 5.1
2018-Aug-12 03:30N 28°08' W 015°21'4 7.9
2018-Aug-12 03:00N 28°09' W 015°17'2 3.1
2018-Aug-12 02:30N 28°11' W 015°17'1 1.7
2018-Aug-12 02:00N 28°12' W 015°17'1 1.6
2018-Aug-12 01:30N 28°13' W 015°17'5 9.2
2018-Aug-12 01:00N 28°13' W 015°22'510.7
2018-Aug-12 00:30N 28°13' W 015°28'510.7
2018-Aug-12 00:00N 28°13' W 015°34'510.2
2018-Aug-11 23:30N 28°14' W 015°40'5 9.7
2018-Aug-11 22:59N 28°14' W 015°46'4 7.4
2018-Aug-11 22:30N 28°14' W 015°50'4 7.1
2018-Aug-11 22:00N 28°14' W 015°54'4 7.5
2018-Aug-11 21:30N 28°15' W 015°58'4 8.1
2018-Aug-11 21:00N 28°17' W 016°02'4 8.8
2018-Aug-11 20:30N 28°20' W 016°05'4 8.4
2018-Aug-11 20:00N 28°23' W 016°08'4 8.3
2018-Aug-11 19:30N 28°26' W 016°12'4 6.9
2018-Aug-11 19:00N 28°29' W 016°14'0 0.0
2018-Aug-11 18:30N 28°29' W 016°14'0 0.0
2018-Aug-11 18:00N 28°29' W 016°14'0 0.0
2018-Aug-11 17:30N 28°29' W 016°14'0 0.0
2018-Aug-11 17:00N 28°29' W 016°14'0 0.0
2018-Aug-11 16:30N 28°29' W 016°14'0 0.0
2018-Aug-11 16:00N 28°29' W 016°14'0 0.0
2018-Aug-11 15:30N 28°29' W 016°14'0 0.0
2018-Aug-11 15:00N 28°29' W 016°14'0 0.0
2018-Aug-11 14:30N 28°29' W 016°14'0 0.0
2018-Aug-11 14:00N 28°29' W 016°14'0 0.0
2018-Aug-11 13:30N 28°29' W 016°14'0 0.0
2018-Aug-11 13:00N 28°29' W 016°14'0 0.0
2018-Aug-11 12:30N 28°29' W 016°14'0 0.7
2018-Aug-11 12:00N 28°29' W 016°14'510.2
2018-Aug-11 11:31N 28°30' W 016°08'611.6
2018-Aug-11 11:00N 28°33' W 016°02'611.5
2018-Aug-11 10:30N 28°36' W 015°57'611.8
2018-Aug-11 10:00N 28°39' W 015°51'1012.1
2018-Aug-11 09:12N 28°44' W 015°41'313.1
2018-Aug-11 09:00N 28°46' W 015°39'713.6
2018-Aug-11 08:30N 28°49' W 015°33'713.6
2018-Aug-11 08:00N 28°53' W 015°26'713.2
2018-Aug-11 07:29N 28°57' W 015°19'613.3
2018-Aug-11 07:00N 29°00' W 015°13'713.5
2018-Aug-11 06:29N 29°04' W 015°06'814.1
2018-Aug-11 05:55N 29°08' W 014°59'714.9
2018-Aug-11 05:28N 29°13' W 014°53'714.6
2018-Aug-11 04:59N 29°17' W 014°47'714.5
2018-Aug-11 04:30N 29°21' W 014°41'714.3
2018-Aug-11 04:00N 29°26' W 014°34'714.4
2018-Aug-11 03:30N 29°30' W 014°28'814.5
2018-Aug-11 02:59N 29°35' W 014°21'714.6
2018-Aug-11 02:29N 29°39' W 014°14'714.6
2018-Aug-11 02:00N 29°43' W 014°07'714.3
2018-Aug-11 01:30N 29°48' W 014°01'814.1
2018-Aug-11 00:56N 29°53' W 013°54'614.0
2018-Aug-11 00:29N 29°57' W 013°48'713.9
2018-Aug-10 23:56N 30°02' W 013°41'713.8
2018-Aug-10 23:28N 30°05' W 013°35'914.1
2018-Aug-10 22:49N 30°11' W 013°27'1514.2
2018-Aug-10 21:46N 30°20' W 013°13'1614.5
2018-Aug-10 20:40N 30°30' W 012°59'314.6
2018-Aug-10 20:26N 30°32' W 012°56'814.5
2018-Aug-10 19:51N 30°38' W 012°48'714.4
2018-Aug-10 19:23N 30°42' W 012°42'2314.4
2018-Aug-10 17:48N 30°51' W 012°18'296 6.2
2018-Aug-08 18:17N 33°48' W 007°37'517.6
2018-Aug-08 18:00N 33°53' W 007°40'1017.9
2018-Aug-08 17:27N 34°01' W 007°45'817.7
2018-Aug-08 17:00N 34°09' W 007°48'917.7
2018-Aug-08 16:30N 34°17' W 007°52'917.6
2018-Aug-08 16:00N 34°25' W 007°57'917.7
2018-Aug-08 15:30N 34°33' W 008°01'4617.5
2018-Aug-08 12:53N 35°15' W 008°22'717.3
2018-Aug-08 12:29N 35°22' W 008°26'2717.8
2018-Aug-08 10:57N 35°47' W 008°39'918.0
2018-Aug-08 10:26N 35°55' W 008°44'817.8
2018-Aug-08 09:59N 36°03' W 008°48'917.8
2018-Aug-08 09:29N 36°10' W 008°53'817.4
2018-Aug-08 09:00N 36°18' W 008°58'917.5
2018-Aug-08 08:30N 36°26' W 009°02'2016.7
2018-Aug-08 07:20N 36°37' W 009°22'1017.2
2018-Aug-08 06:43N 36°45' W 009°31'416.9
2018-Aug-08 06:30N 36°47' W 009°34'917.1
2018-Aug-08 06:00N 36°56' W 009°36'1017.0
2018-Aug-08 05:26N 37°05' W 009°31'817.5
2018-Aug-08 04:57N 37°12' W 009°26'817.6
2018-Aug-08 04:30N 37°19' W 009°21'917.4
2018-Aug-08 04:00N 37°26' W 009°15'917.4
2018-Aug-08 03:30N 37°33' W 009°09'917.4
2018-Aug-08 03:00N 37°41' W 009°03'917.3
2018-Aug-08 02:30N 37°48' W 008°57'815.8
2018-Aug-08 02:00N 37°54' W 008°50'2 4.2
2018-Aug-08 01:30N 37°56' W 008°51'0 0.0
2018-Aug-08 00:50N 37°56' W 008°51'0 0.0
2018-Aug-08 00:29N 37°56' W 008°51'0 0.0
2018-Aug-07 23:59N 37°56' W 008°51'0 0.0
2018-Aug-07 23:29N 37°56' W 008°51'0 0.0
2018-Aug-07 22:56N 37°56' W 008°51'0 0.0
2018-Aug-07 22:29N 37°56' W 008°51'0 0.0
2018-Aug-07 21:56N 37°56' W 008°51'0 0.0
2018-Aug-07 21:29N 37°56' W 008°51'0 0.0
2018-Aug-07 20:59N 37°56' W 008°51'0 0.0
2018-Aug-07 20:26N 37°56' W 008°51'0 0.0
2018-Aug-07 19:59N 37°56' W 008°51'0 0.0
2018-Aug-07 19:26N 37°56' W 008°51'0 0.0
2018-Aug-07 18:50N 37°56' W 008°51'0 0.0
2018-Aug-07 18:23N 37°56' W 008°51'0 0.0
2018-Aug-07 17:58N 37°56' W 008°51'0 0.0
2018-Aug-07 17:28N 37°56' W 008°51'0 0.0
2018-Aug-07 16:58N 37°56' W 008°51'0 0.1
2018-Aug-07 16:30N 37°56' W 008°51'1 2.6
2018-Aug-07 16:00N 37°55' W 008°51'510.0
2018-Aug-07 15:31N 37°57' W 008°57'816.6
2018-Aug-07 15:01N 38°01' W 009°06'917.2
2018-Aug-07 14:30N 38°06' W 009°14'816.9
2018-Aug-07 14:00N 38°12' W 009°23'714.5
2018-Aug-07 13:30N 38°16' W 009°30'612.2
2018-Aug-07 13:00N 38°20' W 009°36'612.3
2018-Aug-07 12:30N 38°23' W 009°43'612.3
2018-Aug-07 12:00N 38°27' W 009°49'611.6
2018-Aug-07 11:30N 38°31' W 009°55'611.7
2018-Aug-07 11:00N 38°34' W 010°01'611.3
2018-Aug-07 10:30N 38°39' W 010°04'611.7
2018-Aug-07 10:00N 38°45' W 010°05'611.3
2018-Aug-07 09:30N 38°51' W 010°05'611.4
2018-Aug-07 09:00N 38°56' W 010°04'511.0
2018-Aug-07 08:30N 39°02' W 010°03'611.2
2018-Aug-07 07:58N 39°08' W 010°01'511.4
2018-Aug-07 07:30N 39°13' W 009°59'611.5
2018-Aug-07 07:00N 39°18' W 009°58'611.4
2018-Aug-07 06:29N 39°24' W 009°56'611.6
2018-Aug-07 05:59N 39°30' W 009°54'711.4
2018-Aug-07 05:21N 39°37' W 009°51'511.3
2018-Aug-07 04:56N 39°41' W 009°49'611.6
2018-Aug-07 04:28N 39°46' W 009°47'  

Dump ship's entire track history